Wetter

Nordholz:

METAR:

2018/12/16 20:32 ETMN 162032Z 15003KT 4500 -SN BKN012 BKN019 M01/M03 Q1013 GRN

TAF:

2018/12/14 12:40 TAF AMD ETMN 141537Z 1412/1421 09008KT 9999 NSW FEW010 BKN050 TEMPO 1412/1415 08008KT 7000 -SN SCT007 BKN012 BKN050 CANCEL 1550

Wind EDXN:

17.12. 01:50z 120/03kt
17.12. 02:00z 140/05kt
17.12. 02:10z 140/03kt
17.12. 02:20z 140/02kt
17.12. 02:30z 130/03kt
17.12. 02:40z 140/03kt
17.12. 02:50z 080/03kt
17.12. 03:00z 080/03kt
17.12. 03:10z 100/03kt
17.12. 03:20z 110/04kt

Bremen:

METAR:

2018/12/16 20:20 EDDW 162020Z 16004KT 9999 BKN007 M00/M01 Q1013 R88/290095 BECMG 4000 BR

TAF:

2018/12/16 18:27 TAF EDDW 161700Z 1618/1718 15005KT 6000 BKN009 TEMPO 1618/1623 2500 -SN BECMG 1621/1623 3500 BR BKN004 PROB30 TEMPO 1623/1709 0600 FG OVC001 BECMG 1709/1711 6000 BKN012 TEMPO 1714/1718 3500 -RADZ BKN006

Hamburg:

METAR:

2018/12/16 20:20 EDDH 162020Z 14005KT 110V170 3500 -SN FEW005 BKN008 M01/M02 Q1013 R88/410195 TEMPO 9000 SCT009

TAF:

2018/12/16 20:39 TAF AMD EDDH 162025Z 1620/1724 13004KT 8000 SCT008 BKN020 TEMPO 1620/1624 2500 -SN BR BKN008 BECMG 1621/1623 BKN012 BECMG 1700/1703 3500 BR BKN004 PROB30 TEMPO 1700/1709 0800 FZFG OVC001 BECMG 1711/1713 6000 BKN012 BECMG 1716/1719 4500 -RADZ BKN007 TEMPO 1719/1724 2500 -DZ BKN004

Hannover:

METAR:

2018/12/16 20:20 EDDV 162020Z 16003KT 130V200 9999 BKN009 00/M02 Q1013 NOSIG

TAF:

2018/12/16 18:27 TAF EDDV 161700Z 1618/1718 15004KT 8000 BKN020 BECMG 1618/1621 BKN012 PROB30 TEMPO 1619/1623 3500 -SN BKN006 BECMG 1623/1702 3500 BR BKN006 TEMPO 1700/1708 1200 BR OVC003 BECMG 1708/1710 8000 BKN025 BECMG 1716/1718 4500 -RADZ BKN012

Wikipedia Artikel: METARTAF

Daten von Aviation Weather Center der NOAA, es kann keine Garantie für Aktualität und Richtigkeit der Daten übernommen werden.

Die Nutzung dieser Daten zur Flugplanung ist nicht zulässig!

Inoffizielle ATIS 🙂